sensor_id;sensor_type;location;lat;lon;timestamp;P1;durP1;ratioP1;P2;durP2;ratioP2
58864;SDS011;45702;52.982;6.658;2023-06-24T00:01:50;21.13;;;11.85;;
58864;SDS011;45702;52.982;6.658;2023-06-24T00:04:15;21.90;;;12.20;;
58864;SDS011;45702;52.982;6.658;2023-06-24T00:06:45;21.70;;;12.48;;
58864;SDS011;45702;52.982;6.658;2023-06-24T00:09:11;21.23;;;11.82;;
58864;SDS011;45702;52.982;6.658;2023-06-24T00:11:37;24.08;;;11.88;;
58864;SDS011;45702;52.982;6.658;2023-06-24T00:14:03;23.17;;;12.07;;
58864;SDS011;45702;52.982;6.658;2023-06-24T00:16:28;19.35;;;11.90;;
58864;SDS011;45702;52.982;6.658;2023-06-24T00:18:55;23.42;;;12.85;;
58864;SDS011;45702;52.982;6.658;2023-06-24T00:21:25;26.25;;;12.40;;
58864;SDS011;45702;52.982;6.658;2023-06-24T00:24:02;23.20;;;13.65;;
58864;SDS011;45702;52.982;6.658;2023-06-24T00:26:29;21.67;;;13.13;;
58864;SDS011;45702;52.982;6.658;2023-06-24T00:28:55;24.58;;;14.27;;
58864;SDS011;45702;52.982;6.658;2023-06-24T00:31:21;26.38;;;13.23;;
58864;SDS011;45702;52.982;6.658;2023-06-24T00:33:46;22.48;;;12.82;;
58864;SDS011;45702;52.982;6.658;2023-06-24T00:36:14;24.58;;;13.27;;
58864;SDS011;45702;52.982;6.658;2023-06-24T00:38:40;26.65;;;12.88;;
58864;SDS011;45702;52.982;6.658;2023-06-24T00:41:06;25.42;;;13.88;;
58864;SDS011;45702;52.982;6.658;2023-06-24T00:43:33;24.38;;;13.27;;
58864;SDS011;45702;52.982;6.658;2023-06-24T00:45:59;22.05;;;12.50;;
58864;SDS011;45702;52.982;6.658;2023-06-24T00:48:24;21.58;;;12.93;;
58864;SDS011;45702;52.982;6.658;2023-06-24T00:50:51;21.25;;;11.95;;
58864;SDS011;45702;52.982;6.658;2023-06-24T00:53:17;26.42;;;12.98;;
58864;SDS011;45702;52.982;6.658;2023-06-24T00:55:44;25.65;;;13.07;;
58864;SDS011;45702;52.982;6.658;2023-06-24T00:58:11;23.15;;;12.73;;
58864;SDS011;45702;52.982;6.658;2023-06-24T01:00:44;24.40;;;13.10;;
58864;SDS011;45702;52.982;6.658;2023-06-24T01:03:11;25.23;;;14.05;;
58864;SDS011;45702;52.982;6.658;2023-06-24T01:05:41;29.00;;;13.60;;
58864;SDS011;45702;52.982;6.658;2023-06-24T01:08:09;25.55;;;13.80;;
58864;SDS011;45702;52.982;6.658;2023-06-24T01:10:40;21.90;;;12.90;;
58864;SDS011;45702;52.982;6.658;2023-06-24T01:13:07;27.23;;;12.93;;
58864;SDS011;45702;52.982;6.658;2023-06-24T01:15:34;25.38;;;13.40;;
58864;SDS011;45702;52.982;6.658;2023-06-24T01:18:07;24.65;;;13.63;;
58864;SDS011;45702;52.982;6.658;2023-06-24T01:20:41;22.83;;;13.65;;
58864;SDS011;45702;52.982;6.658;2023-06-24T01:23:24;27.45;;;14.07;;
58864;SDS011;45702;52.982;6.658;2023-06-24T01:28:45;26.95;;;13.68;;
58864;SDS011;45702;52.982;6.658;2023-06-24T01:31:57;25.38;;;14.70;;
58864;SDS011;45702;52.982;6.658;2023-06-24T01:34:24;28.40;;;15.00;;
58864;SDS011;45702;52.982;6.658;2023-06-24T01:37:10;26.27;;;14.80;;
58864;SDS011;45702;52.982;6.658;2023-06-24T01:40:24;29.42;;;15.15;;
58864;SDS011;45702;52.982;6.658;2023-06-24T01:42:38;29.02;;;15.50;;
58864;SDS011;45702;52.982;6.658;2023-06-24T01:45:07;26.50;;;14.07;;
58864;SDS011;45702;52.982;6.658;2023-06-24T01:47:37;29.95;;;15.32;;
58864;SDS011;45702;52.982;6.658;2023-06-24T01:50:05;27.58;;;14.82;;
58864;SDS011;45702;52.982;6.658;2023-06-24T01:52:35;29.42;;;15.00;;
58864;SDS011;45702;52.982;6.658;2023-06-24T01:55:02;30.67;;;14.00;;
58864;SDS011;45702;52.982;6.658;2023-06-24T01:57:31;28.33;;;15.13;;
58864;SDS011;45702;52.982;6.658;2023-06-24T01:59:59;26.58;;;14.95;;
58864;SDS011;45702;52.982;6.658;2023-06-24T02:02:30;30.63;;;15.35;;
58864;SDS011;45702;52.982;6.658;2023-06-24T02:04:58;24.20;;;14.77;;
58864;SDS011;45702;52.982;6.658;2023-06-24T02:07:26;26.08;;;14.93;;
58864;SDS011;45702;52.982;6.658;2023-06-24T02:09:55;29.90;;;15.10;;
58864;SDS011;45702;52.982;6.658;2023-06-24T02:12:23;24.83;;;14.60;;
58864;SDS011;45702;52.982;6.658;2023-06-24T02:14:51;26.90;;;15.15;;
58864;SDS011;45702;52.982;6.658;2023-06-24T02:17:19;27.60;;;15.15;;
58864;SDS011;45702;52.982;6.658;2023-06-24T02:19:46;27.90;;;14.77;;
58864;SDS011;45702;52.982;6.658;2023-06-24T02:22:14;28.05;;;15.93;;
58864;SDS011;45702;52.982;6.658;2023-06-24T02:24:43;27.27;;;14.57;;
58864;SDS011;45702;52.982;6.658;2023-06-24T02:27:09;29.95;;;14.82;;
58864;SDS011;45702;52.982;6.658;2023-06-24T02:29:36;30.58;;;14.40;;
58864;SDS011;45702;52.982;6.658;2023-06-24T02:32:04;30.25;;;14.93;;
58864;SDS011;45702;52.982;6.658;2023-06-24T02:34:30;30.83;;;15.45;;
58864;SDS011;45702;52.982;6.658;2023-06-24T02:36:56;25.98;;;14.63;;
58864;SDS011;45702;52.982;6.658;2023-06-24T02:39:22;29.40;;;15.20;;
58864;SDS011;45702;52.982;6.658;2023-06-24T02:41:48;31.05;;;15.43;;
58864;SDS011;45702;52.982;6.658;2023-06-24T02:44:15;27.00;;;14.98;;
58864;SDS011;45702;52.982;6.658;2023-06-24T02:46:42;28.15;;;15.48;;
58864;SDS011;45702;52.982;6.658;2023-06-24T02:49:11;27.05;;;14.43;;
58864;SDS011;45702;52.982;6.658;2023-06-24T02:51:41;26.30;;;14.45;;
58864;SDS011;45702;52.982;6.658;2023-06-24T02:54:07;30.15;;;14.77;;
58864;SDS011;45702;52.982;6.658;2023-06-24T02:56:34;34.13;;;15.75;;
58864;SDS011;45702;52.982;6.658;2023-06-24T02:59:06;31.00;;;15.07;;
58864;SDS011;45702;52.982;6.658;2023-06-24T03:01:32;28.45;;;15.10;;
58864;SDS011;45702;52.982;6.658;2023-06-24T03:04:03;27.63;;;14.98;;
58864;SDS011;45702;52.982;6.658;2023-06-24T03:06:30;30.23;;;15.30;;
58864;SDS011;45702;52.982;6.658;2023-06-24T03:08:56;33.78;;;15.05;;
58864;SDS011;45702;52.982;6.658;2023-06-24T03:11:22;30.48;;;14.77;;
58864;SDS011;45702;52.982;6.658;2023-06-24T03:13:48;31.83;;;16.13;;
58864;SDS011;45702;52.982;6.658;2023-06-24T03:16:14;29.02;;;14.93;;
58864;SDS011;45702;52.982;6.658;2023-06-24T03:18:43;29.40;;;15.10;;
58864;SDS011;45702;52.982;6.658;2023-06-24T03:21:09;29.42;;;15.95;;
58864;SDS011;45702;52.982;6.658;2023-06-24T03:23:35;32.03;;;16.08;;
58864;SDS011;45702;52.982;6.658;2023-06-24T03:26:01;37.65;;;16.58;;
58864;SDS011;45702;52.982;6.658;2023-06-24T03:28:30;31.77;;;15.45;;
58864;SDS011;45702;52.982;6.658;2023-06-24T03:31:01;30.85;;;14.85;;
58864;SDS011;45702;52.982;6.658;2023-06-24T03:33:26;25.95;;;14.80;;
58864;SDS011;45702;52.982;6.658;2023-06-24T03:35:52;33.25;;;15.77;;
58864;SDS011;45702;52.982;6.658;2023-06-24T03:38:19;29.90;;;15.80;;
58864;SDS011;45702;52.982;6.658;2023-06-24T03:40:45;27.60;;;15.10;;
58864;SDS011;45702;52.982;6.658;2023-06-24T03:43:11;27.05;;;14.68;;
58864;SDS011;45702;52.982;6.658;2023-06-24T03:45:36;32.78;;;16.40;;
58864;SDS011;45702;52.982;6.658;2023-06-24T03:48:02;37.45;;;16.08;;
58864;SDS011;45702;52.982;6.658;2023-06-24T03:50:28;29.80;;;15.55;;
58864;SDS011;45702;52.982;6.658;2023-06-24T03:52:54;33.60;;;16.17;;
58864;SDS011;45702;52.982;6.658;2023-06-24T03:55:20;35.08;;;15.82;;
58864;SDS011;45702;52.982;6.658;2023-06-24T03:57:46;30.58;;;16.23;;
58864;SDS011;45702;52.982;6.658;2023-06-24T04:00:12;31.90;;;15.98;;
58864;SDS011;45702;52.982;6.658;2023-06-24T04:02:41;29.80;;;15.50;;
58864;SDS011;45702;52.982;6.658;2023-06-24T04:05:07;33.58;;;16.75;;
58864;SDS011;45702;52.982;6.658;2023-06-24T04:07:34;35.30;;;16.08;;
58864;SDS011;45702;52.982;6.658;2023-06-24T04:10:00;30.98;;;15.98;;
58864;SDS011;45702;52.982;6.658;2023-06-24T04:12:27;30.20;;;15.93;;
58864;SDS011;45702;52.982;6.658;2023-06-24T04:14:53;28.80;;;15.50;;
58864;SDS011;45702;52.982;6.658;2023-06-24T04:17:19;29.33;;;16.20;;
58864;SDS011;45702;52.982;6.658;2023-06-24T04:19:44;32.97;;;15.70;;
58864;SDS011;45702;52.982;6.658;2023-06-24T04:22:10;35.13;;;17.30;;
58864;SDS011;45702;52.982;6.658;2023-06-24T04:24:36;27.80;;;15.60;;
58864;SDS011;45702;52.982;6.658;2023-06-24T04:27:02;31.63;;;15.73;;
58864;SDS011;45702;52.982;6.658;2023-06-24T04:29:28;33.55;;;16.23;;
58864;SDS011;45702;52.982;6.658;2023-06-24T04:31:53;29.23;;;15.63;;
58864;SDS011;45702;52.982;6.658;2023-06-24T04:34:19;27.92;;;14.70;;
58864;SDS011;45702;52.982;6.658;2023-06-24T04:36:45;27.30;;;15.25;;
58864;SDS011;45702;52.982;6.658;2023-06-24T04:39:11;27.55;;;15.32;;
58864;SDS011;45702;52.982;6.658;2023-06-24T04:41:36;32.28;;;15.40;;
58864;SDS011;45702;52.982;6.658;2023-06-24T04:44:02;29.98;;;14.82;;
58864;SDS011;45702;52.982;6.658;2023-06-24T04:46:28;33.95;;;15.38;;
58864;SDS011;45702;52.982;6.658;2023-06-24T04:48:54;29.95;;;15.27;;
58864;SDS011;45702;52.982;6.658;2023-06-24T04:51:20;30.13;;;15.00;;
58864;SDS011;45702;52.982;6.658;2023-06-24T04:53:45;28.60;;;14.30;;
58864;SDS011;45702;52.982;6.658;2023-06-24T04:56:11;34.15;;;16.10;;
58864;SDS011;45702;52.982;6.658;2023-06-24T04:58:37;28.58;;;14.85;;
58864;SDS011;45702;52.982;6.658;2023-06-24T05:01:02;25.73;;;14.25;;
58864;SDS011;45702;52.982;6.658;2023-06-24T05:03:28;28.10;;;14.70;;
58864;SDS011;45702;52.982;6.658;2023-06-24T05:05:54;29.00;;;14.85;;
58864;SDS011;45702;52.982;6.658;2023-06-24T05:08:19;30.15;;;15.10;;
58864;SDS011;45702;52.982;6.658;2023-06-24T05:10:45;29.20;;;15.13;;
58864;SDS011;45702;52.982;6.658;2023-06-24T05:13:11;29.02;;;14.80;;
58864;SDS011;45702;52.982;6.658;2023-06-24T05:15:36;26.48;;;14.68;;
58864;SDS011;45702;52.982;6.658;2023-06-24T05:18:02;26.20;;;14.43;;
58864;SDS011;45702;52.982;6.658;2023-06-24T05:20:28;30.55;;;15.05;;
58864;SDS011;45702;52.982;6.658;2023-06-24T05:22:54;27.67;;;14.23;;
58864;SDS011;45702;52.982;6.658;2023-06-24T05:25:19;29.60;;;15.13;;
58864;SDS011;45702;52.982;6.658;2023-06-24T05:27:45;27.88;;;14.93;;
58864;SDS011;45702;52.982;6.658;2023-06-24T05:30:11;30.95;;;14.60;;
58864;SDS011;45702;52.982;6.658;2023-06-24T05:32:38;30.27;;;15.15;;
58864;SDS011;45702;52.982;6.658;2023-06-24T05:35:04;29.15;;;15.30;;
58864;SDS011;45702;52.982;6.658;2023-06-24T05:37:30;29.08;;;14.57;;
58864;SDS011;45702;52.982;6.658;2023-06-24T05:39:55;26.67;;;14.88;;
58864;SDS011;45702;52.982;6.658;2023-06-24T05:42:22;32.55;;;15.20;;
58864;SDS011;45702;52.982;6.658;2023-06-24T05:44:48;29.05;;;14.93;;
58864;SDS011;45702;52.982;6.658;2023-06-24T05:47:14;30.25;;;15.50;;
58864;SDS011;45702;52.982;6.658;2023-06-24T05:49:39;35.83;;;16.05;;
58864;SDS011;45702;52.982;6.658;2023-06-24T05:52:05;26.70;;;14.77;;
58864;SDS011;45702;52.982;6.658;2023-06-24T05:54:31;30.92;;;15.43;;
58864;SDS011;45702;52.982;6.658;2023-06-24T05:56:57;27.52;;;15.65;;
58864;SDS011;45702;52.982;6.658;2023-06-24T05:59:24;27.88;;;15.98;;
58864;SDS011;45702;52.982;6.658;2023-06-24T06:01:49;28.38;;;16.02;;
58864;SDS011;45702;52.982;6.658;2023-06-24T06:04:15;30.27;;;14.93;;
58864;SDS011;45702;52.982;6.658;2023-06-24T06:06:41;27.95;;;15.15;;
58864;SDS011;45702;52.982;6.658;2023-06-24T06:09:06;29.38;;;15.00;;
58864;SDS011;45702;52.982;6.658;2023-06-24T06:11:32;28.23;;;15.52;;
58864;SDS011;45702;52.982;6.658;2023-06-24T06:13:58;25.75;;;15.00;;
58864;SDS011;45702;52.982;6.658;2023-06-24T06:16:24;28.23;;;14.57;;
58864;SDS011;45702;52.982;6.658;2023-06-24T06:18:50;25.73;;;14.25;;
58864;SDS011;45702;52.982;6.658;2023-06-24T06:21:16;25.38;;;15.15;;
58864;SDS011;45702;52.982;6.658;2023-06-24T06:23:41;31.95;;;14.63;;
58864;SDS011;45702;52.982;6.658;2023-06-24T06:26:07;26.42;;;14.52;;
58864;SDS011;45702;52.982;6.658;2023-06-24T06:28:33;24.70;;;14.27;;
58864;SDS011;45702;52.982;6.658;2023-06-24T06:30:59;24.52;;;14.13;;
58864;SDS011;45702;52.982;6.658;2023-06-24T06:33:25;27.77;;;14.70;;
58864;SDS011;45702;52.982;6.658;2023-06-24T06:35:51;23.92;;;13.18;;
58864;SDS011;45702;52.982;6.658;2023-06-24T06:38:16;27.48;;;14.43;;
58864;SDS011;45702;52.982;6.658;2023-06-24T06:40:42;30.45;;;15.27;;
58864;SDS011;45702;52.982;6.658;2023-06-24T06:43:10;25.65;;;14.10;;
58864;SDS011;45702;52.982;6.658;2023-06-24T06:45:36;26.50;;;13.68;;
58864;SDS011;45702;52.982;6.658;2023-06-24T06:48:02;33.00;;;14.00;;
58864;SDS011;45702;52.982;6.658;2023-06-24T06:50:32;30.85;;;14.60;;
58864;SDS011;45702;52.982;6.658;2023-06-24T06:52:59;24.73;;;14.25;;
58864;SDS011;45702;52.982;6.658;2023-06-24T06:55:25;25.40;;;13.98;;
58864;SDS011;45702;52.982;6.658;2023-06-24T06:57:51;24.85;;;14.05;;
58864;SDS011;45702;52.982;6.658;2023-06-24T07:00:17;24.83;;;13.85;;
58864;SDS011;45702;52.982;6.658;2023-06-24T07:02:43;25.45;;;14.38;;
58864;SDS011;45702;52.982;6.658;2023-06-24T07:05:09;29.35;;;16.05;;
58864;SDS011;45702;52.982;6.658;2023-06-24T07:07:36;30.40;;;15.75;;
58864;SDS011;45702;52.982;6.658;2023-06-24T07:12:29;29.23;;;15.68;;
58864;SDS011;45702;52.982;6.658;2023-06-24T07:14:56;28.98;;;15.88;;
58864;SDS011;45702;52.982;6.658;2023-06-24T07:17:21;32.10;;;16.42;;
58864;SDS011;45702;52.982;6.658;2023-06-24T07:19:47;34.50;;;17.40;;
58864;SDS011;45702;52.982;6.658;2023-06-24T07:22:13;30.35;;;16.48;;
58864;SDS011;45702;52.982;6.658;2023-06-24T07:24:40;31.98;;;15.45;;
58864;SDS011;45702;52.982;6.658;2023-06-24T07:27:06;30.70;;;16.17;;
58864;SDS011;45702;52.982;6.658;2023-06-24T07:29:32;29.77;;;17.00;;
58864;SDS011;45702;52.982;6.658;2023-06-24T07:31:58;34.85;;;16.73;;
58864;SDS011;45702;52.982;6.658;2023-06-24T07:34:24;29.85;;;16.17;;
58864;SDS011;45702;52.982;6.658;2023-06-24T07:36:49;32.03;;;16.75;;
58864;SDS011;45702;52.982;6.658;2023-06-24T07:39:16;31.42;;;15.38;;
58864;SDS011;45702;52.982;6.658;2023-06-24T07:41:42;27.38;;;15.10;;
58864;SDS011;45702;52.982;6.658;2023-06-24T07:44:08;26.88;;;14.50;;
58864;SDS011;45702;52.982;6.658;2023-06-24T07:46:34;28.50;;;15.00;;
58864;SDS011;45702;52.982;6.658;2023-06-24T07:49:00;34.88;;;15.27;;
58864;SDS011;45702;52.982;6.658;2023-06-24T07:51:26;28.48;;;13.85;;
58864;SDS011;45702;52.982;6.658;2023-06-24T07:53:52;23.00;;;12.95;;
58864;SDS011;45702;52.982;6.658;2023-06-24T07:56:18;24.02;;;13.40;;
58864;SDS011;45702;52.982;6.658;2023-06-24T07:58:44;23.17;;;12.65;;
58864;SDS011;45702;52.982;6.658;2023-06-24T08:01:10;23.00;;;13.25;;
58864;SDS011;45702;52.982;6.658;2023-06-24T08:03:35;23.70;;;12.65;;
58864;SDS011;45702;52.982;6.658;2023-06-24T08:06:04;20.27;;;11.63;;
58864;SDS011;45702;52.982;6.658;2023-06-24T08:08:30;21.45;;;10.80;;
58864;SDS011;45702;52.982;6.658;2023-06-24T08:10:56;22.15;;;10.68;;
58864;SDS011;45702;52.982;6.658;2023-06-24T08:13:22;19.35;;;9.82;;
58864;SDS011;45702;52.982;6.658;2023-06-24T08:15:48;20.00;;;9.95;;
58864;SDS011;45702;52.982;6.658;2023-06-24T08:18:14;17.33;;;9.48;;
58864;SDS011;45702;52.982;6.658;2023-06-24T08:20:39;19.75;;;8.73;;
58864;SDS011;45702;52.982;6.658;2023-06-24T08:23:05;12.00;;;7.43;;
58864;SDS011;45702;52.982;6.658;2023-06-24T08:25:31;11.05;;;6.35;;
58864;SDS011;45702;52.982;6.658;2023-06-24T08:27:57;18.67;;;6.82;;
58864;SDS011;45702;52.982;6.658;2023-06-24T08:30:23;12.38;;;7.20;;
58864;SDS011;45702;52.982;6.658;2023-06-24T08:32:49;14.70;;;5.57;;
58864;SDS011;45702;52.982;6.658;2023-06-24T08:35:15;13.77;;;5.70;;
58864;SDS011;45702;52.982;6.658;2023-06-24T08:37:41;11.00;;;5.60;;
58864;SDS011;45702;52.982;6.658;2023-06-24T08:40:06;10.07;;;5.72;;
58864;SDS011;45702;52.982;6.658;2023-06-24T08:42:33;13.35;;;5.57;;
58864;SDS011;45702;52.982;6.658;2023-06-24T08:44:59;9.52;;;5.10;;
58864;SDS011;45702;52.982;6.658;2023-06-24T08:47:25;13.45;;;5.80;;
58864;SDS011;45702;52.982;6.658;2023-06-24T08:49:53;9.50;;;5.00;;
58864;SDS011;45702;52.982;6.658;2023-06-24T08:52:26;9.02;;;5.80;;
58864;SDS011;45702;52.982;6.658;2023-06-24T08:57:20;10.30;;;4.97;;
58864;SDS011;45702;52.982;6.658;2023-06-24T08:59:46;13.95;;;6.88;;
58864;SDS011;45702;52.982;6.658;2023-06-24T09:02:12;13.18;;;6.40;;
58864;SDS011;45702;52.982;6.658;2023-06-24T09:04:39;16.17;;;6.80;;
58864;SDS011;45702;52.982;6.658;2023-06-24T09:07:05;11.20;;;6.55;;
58864;SDS011;45702;52.982;6.658;2023-06-24T09:09:31;12.50;;;6.88;;
58864;SDS011;45702;52.982;6.658;2023-06-24T09:11:58;10.18;;;6.88;;
58864;SDS011;45702;52.982;6.658;2023-06-24T09:14:25;13.82;;;7.28;;
58864;SDS011;45702;52.982;6.658;2023-06-24T09:16:55;11.18;;;6.40;;
58864;SDS011;45702;52.982;6.658;2023-06-24T09:19:28;12.38;;;6.97;;
58864;SDS011;45702;52.982;6.658;2023-06-24T09:22:04;13.50;;;7.38;;
58864;SDS011;45702;52.982;6.658;2023-06-24T09:24:35;18.40;;;7.40;;
58864;SDS011;45702;52.982;6.658;2023-06-24T09:27:02;12.70;;;6.95;;
58864;SDS011;45702;52.982;6.658;2023-06-24T09:29:31;11.98;;;6.55;;
58864;SDS011;45702;52.982;6.658;2023-06-24T09:31:58;10.88;;;6.13;;
58864;SDS011;45702;52.982;6.658;2023-06-24T09:34:28;12.25;;;6.07;;
58864;SDS011;45702;52.982;6.658;2023-06-24T09:36:54;11.00;;;6.28;;
58864;SDS011;45702;52.982;6.658;2023-06-24T09:39:21;10.47;;;6.53;;
58864;SDS011;45702;52.982;6.658;2023-06-24T09:41:53;7.70;;;5.07;;
58864;SDS011;45702;52.982;6.658;2023-06-24T09:44:19;10.82;;;5.53;;
58864;SDS011;45702;52.982;6.658;2023-06-24T09:46:48;10.45;;;5.25;;
58864;SDS011;45702;52.982;6.658;2023-06-24T09:49:14;11.27;;;5.43;;
58864;SDS011;45702;52.982;6.658;2023-06-24T09:51:42;9.05;;;5.47;;
58864;SDS011;45702;52.982;6.658;2023-06-24T09:54:10;9.88;;;5.80;;
58864;SDS011;45702;52.982;6.658;2023-06-24T09:56:39;10.73;;;5.53;;
58864;SDS011;45702;52.982;6.658;2023-06-24T09:59:08;11.25;;;5.35;;
58864;SDS011;45702;52.982;6.658;2023-06-24T10:01:36;12.77;;;5.30;;
58864;SDS011;45702;52.982;6.658;2023-06-24T10:04:04;9.10;;;4.68;;
58864;SDS011;45702;52.982;6.658;2023-06-24T10:06:31;8.52;;;5.40;;
58864;SDS011;45702;52.982;6.658;2023-06-24T10:08:58;17.20;;;5.55;;
58864;SDS011;45702;52.982;6.658;2023-06-24T10:11:25;7.65;;;4.65;;
58864;SDS011;45702;52.982;6.658;2023-06-24T10:13:51;10.85;;;5.50;;
58864;SDS011;45702;52.982;6.658;2023-06-24T10:16:17;9.20;;;5.07;;
58864;SDS011;45702;52.982;6.658;2023-06-24T10:18:45;10.80;;;5.72;;
58864;SDS011;45702;52.982;6.658;2023-06-24T10:21:11;13.85;;;5.82;;
58864;SDS011;45702;52.982;6.658;2023-06-24T10:23:40;14.27;;;5.38;;
58864;SDS011;45702;52.982;6.658;2023-06-24T10:26:26;9.13;;;5.65;;
58864;SDS011;45702;52.982;6.658;2023-06-24T10:44:54;9.77;;;5.70;;
58864;SDS011;45702;52.982;6.658;2023-06-24T10:50:04;12.00;;;5.70;;
58864;SDS011;45702;52.982;6.658;2023-06-24T10:52:31;8.85;;;5.28;;
58864;SDS011;45702;52.982;6.658;2023-06-24T10:54:58;23.45;;;6.43;;
58864;SDS011;45702;52.982;6.658;2023-06-24T10:57:24;9.27;;;5.53;;
58864;SDS011;45702;52.982;6.658;2023-06-24T10:59:55;8.68;;;5.47;;
58864;SDS011;45702;52.982;6.658;2023-06-24T11:02:22;10.05;;;5.40;;
58864;SDS011;45702;52.982;6.658;2023-06-24T11:04:49;10.95;;;5.57;;
58864;SDS011;45702;52.982;6.658;2023-06-24T11:07:17;8.50;;;5.40;;
58864;SDS011;45702;52.982;6.658;2023-06-24T11:12:38;8.10;;;5.32;;
58864;SDS011;45702;52.982;6.658;2023-06-24T11:15:05;9.90;;;5.38;;
58864;SDS011;45702;52.982;6.658;2023-06-24T11:17:33;10.68;;;5.82;;
58864;SDS011;45702;52.982;6.658;2023-06-24T11:20:00;8.50;;;5.65;;
58864;SDS011;45702;52.982;6.658;2023-06-24T11:22:27;13.57;;;5.60;;
58864;SDS011;45702;52.982;6.658;2023-06-24T11:24:53;10.27;;;5.72;;
58864;SDS011;45702;52.982;6.658;2023-06-24T11:27:29;9.55;;;5.60;;
58864;SDS011;45702;52.982;6.658;2023-06-24T11:29:56;8.82;;;5.45;;
58864;SDS011;45702;52.982;6.658;2023-06-24T11:32:36;9.48;;;5.30;;
58864;SDS011;45702;52.982;6.658;2023-06-24T11:35:07;9.73;;;5.63;;
58864;SDS011;45702;52.982;6.658;2023-06-24T11:37:34;8.98;;;5.97;;
58864;SDS011;45702;52.982;6.658;2023-06-24T11:40:04;9.23;;;6.05;;
58864;SDS011;45702;52.982;6.658;2023-06-24T11:42:31;9.52;;;5.30;;
58864;SDS011;45702;52.982;6.658;2023-06-24T11:45:04;10.68;;;5.75;;
58864;SDS011;45702;52.982;6.658;2023-06-24T11:47:35;10.27;;;5.18;;
58864;SDS011;45702;52.982;6.658;2023-06-24T11:50:02;9.70;;;5.38;;
58864;SDS011;45702;52.982;6.658;2023-06-24T12:00:27;9.02;;;5.05;;
58864;SDS011;45702;52.982;6.658;2023-06-24T12:02:57;10.32;;;5.40;;
58864;SDS011;45702;52.982;6.658;2023-06-24T12:07:59;11.45;;;5.50;;
58864;SDS011;45702;52.982;6.658;2023-06-24T12:10:27;10.90;;;5.68;;
58864;SDS011;45702;52.982;6.658;2023-06-24T12:13:00;8.90;;;5.45;;
58864;SDS011;45702;52.982;6.658;2023-06-24T12:15:27;9.18;;;5.45;;
58864;SDS011;45702;52.982;6.658;2023-06-24T12:17:53;10.27;;;5.60;;
58864;SDS011;45702;52.982;6.658;2023-06-24T12:20:19;13.63;;;5.78;;
58864;SDS011;45702;52.982;6.658;2023-06-24T12:22:46;10.20;;;6.22;;
58864;SDS011;45702;52.982;6.658;2023-06-24T12:25:13;9.57;;;5.30;;
58864;SDS011;45702;52.982;6.658;2023-06-24T12:27:39;15.70;;;5.80;;
58864;SDS011;45702;52.982;6.658;2023-06-24T12:30:06;11.80;;;5.93;;
58864;SDS011;45702;52.982;6.658;2023-06-24T12:32:33;9.25;;;5.97;;
58864;SDS011;45702;52.982;6.658;2023-06-24T12:34:58;11.02;;;5.90;;
58864;SDS011;45702;52.982;6.658;2023-06-24T12:37:24;10.43;;;5.53;;
58864;SDS011;45702;52.982;6.658;2023-06-24T12:39:50;9.93;;;5.93;;
58864;SDS011;45702;52.982;6.658;2023-06-24T12:42:17;12.00;;;5.95;;
58864;SDS011;45702;52.982;6.658;2023-06-24T12:44:43;10.20;;;5.50;;
58864;SDS011;45702;52.982;6.658;2023-06-24T12:47:08;9.13;;;5.25;;
58864;SDS011;45702;52.982;6.658;2023-06-24T12:49:34;10.60;;;6.10;;
58864;SDS011;45702;52.982;6.658;2023-06-24T12:52:00;9.38;;;6.07;;
58864;SDS011;45702;52.982;6.658;2023-06-24T12:54:27;10.43;;;5.55;;
58864;SDS011;45702;52.982;6.658;2023-06-24T12:56:52;9.57;;;5.50;;
58864;SDS011;45702;52.982;6.658;2023-06-24T12:59:18;8.98;;;5.40;;
58864;SDS011;45702;52.982;6.658;2023-06-24T13:01:44;7.90;;;5.07;;
58864;SDS011;45702;52.982;6.658;2023-06-24T13:04:10;9.38;;;5.47;;
58864;SDS011;45702;52.982;6.658;2023-06-24T13:06:36;9.07;;;5.78;;
58864;SDS011;45702;52.982;6.658;2023-06-24T13:09:02;10.23;;;5.60;;
58864;SDS011;45702;52.982;6.658;2023-06-24T13:11:28;11.18;;;5.93;;
58864;SDS011;45702;52.982;6.658;2023-06-24T13:13:54;10.50;;;5.78;;
58864;SDS011;45702;52.982;6.658;2023-06-24T13:16:20;13.05;;;5.85;;
58864;SDS011;45702;52.982;6.658;2023-06-24T13:18:46;9.68;;;5.90;;
58864;SDS011;45702;52.982;6.658;2023-06-24T13:21:12;9.27;;;5.70;;
58864;SDS011;45702;52.982;6.658;2023-06-24T13:23:38;8.63;;;5.38;;
58864;SDS011;45702;52.982;6.658;2023-06-24T13:26:05;8.82;;;5.53;;
58864;SDS011;45702;52.982;6.658;2023-06-24T13:28:31;10.13;;;5.40;;
58864;SDS011;45702;52.982;6.658;2023-06-24T13:30:57;9.38;;;5.40;;
58864;SDS011;45702;52.982;6.658;2023-06-24T13:33:23;11.27;;;5.57;;
58864;SDS011;45702;52.982;6.658;2023-06-24T13:35:49;11.15;;;5.53;;
58864;SDS011;45702;52.982;6.658;2023-06-24T13:38:16;10.43;;;5.43;;
58864;SDS011;45702;52.982;6.658;2023-06-24T13:40:42;13.65;;;5.93;;
58864;SDS011;45702;52.982;6.658;2023-06-24T13:43:08;10.55;;;5.78;;
58864;SDS011;45702;52.982;6.658;2023-06-24T13:45:34;8.15;;;5.15;;
58864;SDS011;45702;52.982;6.658;2023-06-24T13:47:59;11.63;;;5.75;;
58864;SDS011;45702;52.982;6.658;2023-06-24T13:50:25;9.38;;;5.65;;
58864;SDS011;45702;52.982;6.658;2023-06-24T13:52:51;10.13;;;5.13;;
58864;SDS011;45702;52.982;6.658;2023-06-24T13:55:16;8.93;;;5.35;;
58864;SDS011;45702;52.982;6.658;2023-06-24T13:57:42;9.82;;;5.38;;
58864;SDS011;45702;52.982;6.658;2023-06-24T14:00:08;10.10;;;4.80;;
58864;SDS011;45702;52.982;6.658;2023-06-24T14:02:34;8.20;;;4.93;;
58864;SDS011;45702;52.982;6.658;2023-06-24T14:05:00;12.77;;;5.68;;
58864;SDS011;45702;52.982;6.658;2023-06-24T14:07:26;8.90;;;5.18;;
58864;SDS011;45702;52.982;6.658;2023-06-24T14:09:51;8.45;;;5.80;;
58864;SDS011;45702;52.982;6.658;2023-06-24T14:12:17;7.80;;;4.68;;
58864;SDS011;45702;52.982;6.658;2023-06-24T14:14:43;7.10;;;4.82;;
58864;SDS011;45702;52.982;6.658;2023-06-24T14:17:09;7.05;;;4.80;;
58864;SDS011;45702;52.982;6.658;2023-06-24T14:19:36;10.55;;;4.85;;
58864;SDS011;45702;52.982;6.658;2023-06-24T14:22:03;13.70;;;4.63;;
58864;SDS011;45702;52.982;6.658;2023-06-24T14:24:29;8.93;;;5.05;;
58864;SDS011;45702;52.982;6.658;2023-06-24T14:26:55;15.48;;;5.35;;
58864;SDS011;45702;52.982;6.658;2023-06-24T14:29:21;9.23;;;5.82;;
58864;SDS011;45702;52.982;6.658;2023-06-24T14:31:47;10.45;;;5.32;;
58864;SDS011;45702;52.982;6.658;2023-06-24T14:34:14;7.95;;;5.25;;
58864;SDS011;45702;52.982;6.658;2023-06-24T14:36:44;8.85;;;5.20;;
58864;SDS011;45702;52.982;6.658;2023-06-24T14:39:12;9.13;;;5.15;;
58864;SDS011;45702;52.982;6.658;2023-06-24T14:41:39;8.25;;;5.53;;
58864;SDS011;45702;52.982;6.658;2023-06-24T14:44:05;13.43;;;5.68;;
58864;SDS011;45702;52.982;6.658;2023-06-24T14:46:30;13.80;;;5.65;;
58864;SDS011;45702;52.982;6.658;2023-06-24T14:48:56;14.00;;;6.40;;
58864;SDS011;45702;52.982;6.658;2023-06-24T14:51:23;9.98;;;5.35;;
58864;SDS011;45702;52.982;6.658;2023-06-24T14:53:49;8.67;;;5.17;;
58864;SDS011;45702;52.982;6.658;2023-06-24T14:56:15;9.13;;;5.45;;
58864;SDS011;45702;52.982;6.658;2023-06-24T14:58:41;11.60;;;5.38;;
58864;SDS011;45702;52.982;6.658;2023-06-24T15:01:06;10.93;;;5.75;;
58864;SDS011;45702;52.982;6.658;2023-06-24T15:03:32;10.13;;;5.47;;
58864;SDS011;45702;52.982;6.658;2023-06-24T15:05:58;9.98;;;6.10;;
58864;SDS011;45702;52.982;6.658;2023-06-24T15:08:23;9.15;;;5.72;;
58864;SDS011;45702;52.982;6.658;2023-06-24T15:10:51;8.98;;;5.32;;